createdAt,value
2023-04-16T00:02:09.841Z,10.95
2023-04-16T00:04:37.003Z,10.70
2023-04-16T00:07:04.628Z,12.50
2023-04-16T00:09:32.099Z,10.65
2023-04-16T00:11:59.200Z,12.77
2023-04-16T00:14:26.296Z,13.05
2023-04-16T00:16:53.406Z,10.15
2023-04-16T00:19:20.688Z,11.70
2023-04-16T00:21:47.890Z,13.35
2023-04-16T00:24:15.103Z,12.00
2023-04-16T00:26:44.425Z,11.15
2023-04-16T00:29:11.577Z,11.52
2023-04-16T00:31:39.198Z,12.18
2023-04-16T00:34:06.529Z,12.75
2023-04-16T00:36:33.588Z,11.70
2023-04-16T00:39:00.641Z,10.48
2023-04-16T00:41:27.961Z,12.45
2023-04-16T00:43:54.920Z,12.68
2023-04-16T00:46:24.162Z,11.32
2023-04-16T00:48:53.093Z,10.05
2023-04-16T00:51:21.793Z,13.35
2023-04-16T00:53:49.244Z,11.57
2023-04-16T00:56:17.650Z,10.95
2023-04-16T00:58:45.050Z,10.95
2023-04-16T01:01:14.440Z,12.00
2023-04-16T01:03:47.108Z,12.88
2023-04-16T01:06:16.781Z,11.75
2023-04-16T01:08:44.258Z,11.45
2023-04-16T01:11:12.360Z,12.60
2023-04-16T01:13:39.882Z,12.02
2023-04-16T01:16:11.599Z,11.93
2023-04-16T01:18:39.355Z,11.73
2023-04-16T01:21:07.058Z,10.57
2023-04-16T01:23:34.373Z,12.50
2023-04-16T01:26:01.567Z,12.07
2023-04-16T01:28:28.693Z,12.25
2023-04-16T01:30:55.855Z,10.48
2023-04-16T01:33:22.942Z,10.68
2023-04-16T01:35:50.100Z,12.68
2023-04-16T01:38:17.519Z,12.00
2023-04-16T01:40:44.680Z,10.90
2023-04-16T01:43:11.729Z,11.18
2023-04-16T01:45:38.699Z,10.05
2023-04-16T01:48:06.043Z,11.52
2023-04-16T01:50:33.851Z,9.38
2023-04-16T01:53:02.336Z,12.00
2023-04-16T01:55:29.303Z,10.18
2023-04-16T01:57:56.559Z,11.10
2023-04-16T02:00:23.551Z,9.70
2023-04-16T02:02:50.788Z,10.70
2023-04-16T02:05:18.163Z,8.95
2023-04-16T02:07:45.143Z,9.32
2023-04-16T02:10:12.190Z,10.05
2023-04-16T02:12:39.391Z,8.82
2023-04-16T02:15:07.417Z,8.60
2023-04-16T02:17:35.348Z,9.63
2023-04-16T02:20:05.789Z,9.85
2023-04-16T02:22:32.916Z,7.97
2023-04-16T02:24:59.970Z,8.15
2023-04-16T02:27:27.073Z,8.43
2023-04-16T02:29:54.245Z,8.27
2023-04-16T02:32:22.410Z,9.73
2023-04-16T02:34:49.770Z,7.47
2023-04-16T02:37:16.811Z,7.45
2023-04-16T02:39:44.208Z,7.53
2023-04-16T02:42:11.373Z,7.57
2023-04-16T02:44:38.326Z,7.35
2023-04-16T02:47:05.398Z,8.77
2023-04-16T02:49:32.511Z,8.13
2023-04-16T02:51:59.585Z,6.95
2023-04-16T02:54:26.709Z,7.18
2023-04-16T02:56:53.824Z,7.93
2023-04-16T02:59:20.859Z,7.68
2023-04-16T03:01:48.070Z,7.03
2023-04-16T03:04:15.190Z,7.28
2023-04-16T03:06:42.285Z,6.97
2023-04-16T03:09:09.615Z,7.13
2023-04-16T03:11:36.871Z,7.38
2023-04-16T03:14:03.918Z,7.95
2023-04-16T03:16:31.006Z,7.55
2023-04-16T03:18:58.112Z,8.80
2023-04-16T03:21:25.210Z,7.40
2023-04-16T03:23:53.536Z,9.05
2023-04-16T03:26:21.083Z,8.48
2023-04-16T03:28:48.290Z,7.72
2023-04-16T03:31:15.584Z,7.25
2023-04-16T03:33:42.907Z,7.78
2023-04-16T03:36:10.327Z,8.55
2023-04-16T03:38:37.497Z,7.05
2023-04-16T03:41:04.539Z,8.32
2023-04-16T03:43:31.656Z,7.93
2023-04-16T03:45:58.752Z,8.18
2023-04-16T03:48:26.183Z,7.10
2023-04-16T03:50:53.203Z,7.68
2023-04-16T03:53:20.132Z,6.75
2023-04-16T03:55:53.785Z,6.43
2023-04-16T03:58:21.335Z,6.43
2023-04-16T04:00:48.550Z,6.30
2023-04-16T04:03:18.829Z,7.05
2023-04-16T04:05:46.538Z,5.20
2023-04-16T04:08:13.651Z,6.45
2023-04-16T04:10:40.875Z,4.57
2023-04-16T04:13:08.181Z,4.50
2023-04-16T04:15:35.292Z,6.07
2023-04-16T04:18:02.280Z,5.22
2023-04-16T04:20:29.392Z,4.10
2023-04-16T04:22:56.442Z,4.53
2023-04-16T04:25:23.628Z,4.70
2023-04-16T04:27:50.710Z,3.72
2023-04-16T04:30:17.855Z,3.50
2023-04-16T04:32:45.113Z,4.47
2023-04-16T04:35:12.301Z,3.85
2023-04-16T04:37:39.537Z,4.05
2023-04-16T04:40:07.379Z,3.47
2023-04-16T04:42:34.557Z,3.80
2023-04-16T04:45:01.659Z,3.90
2023-04-16T04:47:33.444Z,4.03
2023-04-16T04:50:00.626Z,3.92
2023-04-16T04:52:27.723Z,4.25
2023-04-16T04:54:54.948Z,3.78
2023-04-16T04:57:21.977Z,6.38
2023-04-16T04:59:48.978Z,5.35
2023-04-16T05:02:16.300Z,4.95
2023-04-16T05:04:43.458Z,6.35
2023-04-16T05:07:10.831Z,8.93
2023-04-16T05:09:37.873Z,6.88
2023-04-16T05:12:05.147Z,6.55
2023-04-16T05:14:32.459Z,5.50
2023-04-16T05:16:59.558Z,4.82
2023-04-16T05:19:26.719Z,5.00
2023-04-16T05:21:54.693Z,5.13
2023-04-16T05:24:23.441Z,4.30
2023-04-16T05:26:50.509Z,3.22
2023-04-16T05:29:17.620Z,3.30
2023-04-16T05:31:44.833Z,3.08
2023-04-16T05:34:12.016Z,3.38
2023-04-16T05:36:38.971Z,2.83
2023-04-16T05:39:06.338Z,2.95
2023-04-16T05:41:33.930Z,2.40
2023-04-16T05:44:00.991Z,3.00
2023-04-16T05:46:28.048Z,2.70
2023-04-16T05:48:55.048Z,2.30
2023-04-16T05:51:24.614Z,2.45
2023-04-16T05:53:51.785Z,2.53
2023-04-16T05:56:19.074Z,2.60
2023-04-16T05:58:46.270Z,2.42
2023-04-16T06:01:13.566Z,2.30
2023-04-16T06:03:40.888Z,2.20
2023-04-16T06:06:09.096Z,2.13
2023-04-16T06:08:36.251Z,1.88
2023-04-16T06:11:03.846Z,2.08
2023-04-16T06:13:31.186Z,2.10
2023-04-16T06:15:58.725Z,1.80
2023-04-16T06:18:25.930Z,1.70
2023-04-16T06:20:53.325Z,1.52
2023-04-16T06:23:20.738Z,1.88
2023-04-16T06:25:47.834Z,1.55
2023-04-16T06:28:15.388Z,1.70
2023-04-16T06:30:53.492Z,1.48
2023-04-16T06:33:20.950Z,1.52
2023-04-16T06:35:48.032Z,1.52
2023-04-16T06:38:15.817Z,1.48
2023-04-16T06:40:42.920Z,1.60
2023-04-16T06:43:10.020Z,1.38
2023-04-16T06:45:37.197Z,1.60
2023-04-16T06:48:05.313Z,1.65
2023-04-16T06:50:32.469Z,1.52
2023-04-16T06:52:59.562Z,1.13
2023-04-16T06:55:26.607Z,1.30
2023-04-16T06:57:53.675Z,1.23
2023-04-16T07:00:20.997Z,1.25
2023-04-16T07:02:48.204Z,1.58
2023-04-16T07:05:15.407Z,1.20
2023-04-16T07:07:42.686Z,1.40
2023-04-16T07:10:10.200Z,1.30
2023-04-16T07:12:37.486Z,1.35
2023-04-16T07:15:05.769Z,1.33
2023-04-16T07:17:33.295Z,1.23
2023-04-16T07:20:00.673Z,1.40
2023-04-16T07:22:27.959Z,1.30
2023-04-16T07:24:55.900Z,1.30
2023-04-16T07:27:23.431Z,1.40
2023-04-16T07:29:51.138Z,1.40
2023-04-16T07:32:18.359Z,1.20
2023-04-16T07:34:45.573Z,1.08
2023-04-16T07:37:12.672Z,1.23
2023-04-16T07:39:40.215Z,0.93
2023-04-16T07:42:07.537Z,0.98
2023-04-16T07:44:34.881Z,1.25
2023-04-16T07:47:04.744Z,1.42
2023-04-16T07:49:32.499Z,1.38
2023-04-16T07:51:59.701Z,0.95
2023-04-16T07:54:28.838Z,0.90
2023-04-16T07:56:56.501Z,1.10
2023-04-16T07:59:24.540Z,1.20
2023-04-16T08:01:54.056Z,1.13
2023-04-16T08:04:25.647Z,1.20
2023-04-16T08:06:54.111Z,0.80
2023-04-16T08:09:22.534Z,2.47
2023-04-16T08:11:50.173Z,1.00
2023-04-16T08:14:21.118Z,1.40
2023-04-16T08:16:48.156Z,1.17
2023-04-16T08:19:15.361Z,1.00
2023-04-16T08:21:42.523Z,0.95
2023-04-16T08:24:09.611Z,1.10
2023-04-16T08:26:36.735Z,1.20
2023-04-16T08:29:05.952Z,1.42
2023-04-16T08:31:37.338Z,1.02
2023-04-16T08:34:06.026Z,1.02
2023-04-16T08:36:33.184Z,1.80
2023-04-16T08:39:00.870Z,2.03
2023-04-16T08:41:36.912Z,0.93
2023-04-16T08:44:09.533Z,1.00
2023-04-16T08:46:38.132Z,1.30
2023-04-16T08:49:08.757Z,1.05
2023-04-16T08:51:36.433Z,1.00
2023-04-16T08:54:05.843Z,1.30
2023-04-16T08:56:37.674Z,1.20
2023-04-16T08:59:08.600Z,1.20
2023-04-16T09:01:36.236Z,1.02
2023-04-16T09:04:04.271Z,1.40
2023-04-16T09:06:33.349Z,1.30
2023-04-16T09:09:04.813Z,1.30
2023-04-16T09:11:32.575Z,1.58
2023-04-16T09:14:01.032Z,1.20
2023-04-16T09:16:33.818Z,1.00
2023-04-16T09:19:00.828Z,1.00
2023-04-16T09:21:28.267Z,1.17
2023-04-16T09:23:55.742Z,0.88
2023-04-16T09:26:23.078Z,1.10
2023-04-16T09:28:51.640Z,1.30
2023-04-16T09:31:19.632Z,1.80
2023-04-16T09:34:03.301Z,1.15
2023-04-16T09:36:32.701Z,1.15
2023-04-16T09:39:00.365Z,0.98
2023-04-16T09:41:29.649Z,1.23
2023-04-16T09:44:07.079Z,1.33
2023-04-16T09:46:41.975Z,1.23
2023-04-16T09:49:10.702Z,1.50
2023-04-16T09:54:07.169Z,1.27
2023-04-16T09:59:01.288Z,1.17
2023-04-16T10:01:30.922Z,1.02
2023-04-16T10:04:00.115Z,1.35
2023-04-16T10:06:29.674Z,1.10
2023-04-16T10:08:57.431Z,1.85
2023-04-16T10:11:26.086Z,1.38
2023-04-16T10:13:53.661Z,1.45
2023-04-16T10:16:23.141Z,1.63
2023-04-16T10:18:50.175Z,1.20
2023-04-16T10:21:17.586Z,1.08
2023-04-16T10:23:44.991Z,1.25
2023-04-16T10:26:12.253Z,1.75
2023-04-16T10:28:39.430Z,1.60
2023-04-16T10:31:08.925Z,1.60
2023-04-16T10:33:39.649Z,1.40
2023-04-16T10:36:10.808Z,2.15
2023-04-16T10:38:49.773Z,1.52
2023-04-16T10:41:17.392Z,3.10
2023-04-16T10:43:47.010Z,1.52
2023-04-16T10:46:31.049Z,3.05
2023-04-16T10:49:03.092Z,1.70
2023-04-16T10:51:33.261Z,2.70
2023-04-16T10:54:19.664Z,1.42
2023-04-16T10:56:47.717Z,1.83
2023-04-16T10:59:19.352Z,1.73
2023-04-16T11:01:49.033Z,1.80
2023-04-16T11:04:22.344Z,1.77
2023-04-16T11:07:11.785Z,1.85
2023-04-16T11:09:53.304Z,1.45
2023-04-16T11:12:28.055Z,1.55
2023-04-16T11:15:02.870Z,1.50
2023-04-16T11:17:44.942Z,2.90
2023-04-16T11:20:21.291Z,4.10
2023-04-16T11:22:50.586Z,3.75
2023-04-16T11:25:25.233Z,2.10
2023-04-16T11:27:53.755Z,2.60
2023-04-16T11:30:35.186Z,1.65
2023-04-16T11:33:10.022Z,1.70
2023-04-16T11:35:39.383Z,1.63
2023-04-16T11:38:07.638Z,1.92
2023-04-16T11:40:35.452Z,2.47
2023-04-16T11:43:15.111Z,1.63
2023-04-16T11:45:59.750Z,1.50
2023-04-16T11:48:47.193Z,1.33
2023-04-16T11:51:14.906Z,1.50
2023-04-16T11:53:55.297Z,2.67
2023-04-16T11:56:30.575Z,1.88
2023-04-16T11:59:14.870Z,1.70
2023-04-16T12:01:46.149Z,1.52
2023-04-16T12:04:16.063Z,1.52
2023-04-16T12:07:11.447Z,2.38
2023-04-16T12:09:43.280Z,1.80
2023-04-16T12:12:33.484Z,2.00
2023-04-16T12:15:05.124Z,1.63
2023-04-16T12:17:37.935Z,1.67
2023-04-16T12:20:12.911Z,2.00
2023-04-16T12:23:01.646Z,1.38
2023-04-16T12:25:29.211Z,1.90
2023-04-16T12:27:58.367Z,1.92
2023-04-16T12:30:27.242Z,1.83
2023-04-16T12:33:18.138Z,2.22
2023-04-16T12:35:46.085Z,1.60
2023-04-16T12:38:15.991Z,1.77
2023-04-16T12:40:43.516Z,1.75
2023-04-16T12:43:16.391Z,1.40
2023-04-16T12:45:46.736Z,1.77
2023-04-16T12:48:13.987Z,1.30
2023-04-16T12:50:44.519Z,2.35
2023-04-16T12:53:12.120Z,2.10
2023-04-16T12:55:39.394Z,2.08
2023-04-16T12:58:07.232Z,2.03
2023-04-16T13:00:34.141Z,1.85
2023-04-16T13:03:01.504Z,2.35
2023-04-16T13:05:29.021Z,1.98
2023-04-16T13:07:56.262Z,1.92
2023-04-16T13:10:23.760Z,1.92
2023-04-16T13:12:50.997Z,1.38
2023-04-16T13:15:18.240Z,2.00
2023-04-16T13:17:45.536Z,1.67
2023-04-16T13:20:12.750Z,1.95
2023-04-16T13:22:39.898Z,2.05
2023-04-16T13:25:07.715Z,2.20
2023-04-16T13:27:34.805Z,1.70
2023-04-16T13:30:01.924Z,1.60
2023-04-16T13:32:32.367Z,2.25
2023-04-16T13:34:59.582Z,1.60
2023-04-16T13:37:26.722Z,1.83
2023-04-16T13:39:53.683Z,1.70
2023-04-16T13:42:20.955Z,1.80
2023-04-16T13:44:49.527Z,1.60
2023-04-16T13:47:17.250Z,2.10
2023-04-16T13:49:44.453Z,1.73
2023-04-16T13:52:11.644Z,1.75
2023-04-16T13:54:38.671Z,2.22
2023-04-16T13:57:05.855Z,1.55
2023-04-16T13:59:33.210Z,1.40
2023-04-16T14:02:00.544Z,1.75
2023-04-16T14:04:28.052Z,1.77
2023-04-16T14:06:55.034Z,2.00
2023-04-16T14:09:21.968Z,1.48
2023-04-16T14:11:49.137Z,1.45
2023-04-16T14:14:16.399Z,1.50
2023-04-16T14:16:43.674Z,1.60
2023-04-16T14:19:11.271Z,1.60
2023-04-16T14:21:38.522Z,1.98
2023-04-16T14:24:06.190Z,1.50
2023-04-16T14:26:33.392Z,1.60
2023-04-16T14:29:00.475Z,1.42
2023-04-16T14:31:27.710Z,1.67
2023-04-16T14:33:54.855Z,2.05
2023-04-16T14:36:21.985Z,1.55
2023-04-16T14:38:49.131Z,2.05
2023-04-16T14:41:16.312Z,2.05
2023-04-16T14:43:44.616Z,1.77
2023-04-16T14:46:11.811Z,1.65
2023-04-16T14:48:39.242Z,1.65
2023-04-16T14:51:07.343Z,1.73
2023-04-16T14:53:36.296Z,1.73
2023-04-16T14:56:03.832Z,2.13
2023-04-16T14:58:31.597Z,1.60
2023-04-16T15:00:59.315Z,2.55
2023-04-16T15:03:26.825Z,2.25
2023-04-16T15:05:56.693Z,1.65
2023-04-16T15:08:24.737Z,1.80
2023-04-16T15:10:52.075Z,2.53
2023-04-16T15:13:19.656Z,1.85
2023-04-16T15:15:46.827Z,1.60
2023-04-16T15:18:14.124Z,1.80
2023-04-16T15:20:41.494Z,1.80
2023-04-16T15:23:08.493Z,1.85
2023-04-16T15:25:35.664Z,1.77
2023-04-16T15:28:02.844Z,2.38
2023-04-16T15:30:31.457Z,2.03
2023-04-16T15:32:58.570Z,2.03
2023-04-16T15:35:25.620Z,1.85
2023-04-16T15:37:53.075Z,1.92
2023-04-16T15:40:20.847Z,1.70
2023-04-16T15:42:47.992Z,1.75
2023-04-16T15:45:15.076Z,1.92
2023-04-16T15:47:48.100Z,2.00
2023-04-16T15:50:15.459Z,1.92
2023-04-16T15:52:42.543Z,2.10
2023-04-16T15:55:10.182Z,1.95
2023-04-16T15:57:37.291Z,2.35
2023-04-16T16:00:13.375Z,1.85
2023-04-16T16:02:42.074Z,2.20
2023-04-16T16:05:18.934Z,2.53
2023-04-16T16:07:46.590Z,2.25
2023-04-16T16:10:13.734Z,2.45
2023-04-16T16:12:41.559Z,1.83
2023-04-16T16:15:11.302Z,2.10
2023-04-16T16:17:39.107Z,2.00
2023-04-16T16:20:10.687Z,2.30
2023-04-16T16:22:38.437Z,2.55
2023-04-16T16:25:07.832Z,2.63
2023-04-16T16:27:36.493Z,2.90
2023-04-16T16:30:06.685Z,2.83
2023-04-16T16:35:01.692Z,3.17
2023-04-16T16:37:31.050Z,3.20
2023-04-16T16:39:58.173Z,3.17
2023-04-16T16:42:25.368Z,3.35
2023-04-16T16:44:53.888Z,4.13
2023-04-16T16:47:22.095Z,3.28
2023-04-16T16:49:49.231Z,3.55
2023-04-16T16:52:16.390Z,3.80
2023-04-16T16:54:43.560Z,3.95
2023-04-16T16:57:11.007Z,4.03
2023-04-16T16:59:37.948Z,4.28
2023-04-16T17:02:06.690Z,3.42
2023-04-16T17:04:33.843Z,3.47
2023-04-16T17:07:01.288Z,3.30
2023-04-16T17:09:28.348Z,2.70
2023-04-16T17:11:55.551Z,2.92
2023-04-16T17:14:22.788Z,3.00
2023-04-16T17:16:50.069Z,3.35
2023-04-16T17:19:18.128Z,3.10
2023-04-16T17:21:45.276Z,3.08
2023-04-16T17:24:12.608Z,3.30
2023-04-16T17:26:41.302Z,2.88
2023-04-16T17:29:08.288Z,3.70
2023-04-16T17:31:36.102Z,4.32
2023-04-16T17:34:06.081Z,4.68
2023-04-16T17:36:33.142Z,5.13
2023-04-16T17:39:00.206Z,4.68
2023-04-16T17:41:27.455Z,4.90
2023-04-16T17:43:54.752Z,5.13
2023-04-16T17:46:22.060Z,5.55
2023-04-16T17:48:49.319Z,5.40
2023-04-16T17:51:16.718Z,6.47
2023-04-16T17:53:44.838Z,7.65
2023-04-16T17:56:13.990Z,7.70
2023-04-16T17:58:41.099Z,5.10
2023-04-16T18:01:08.383Z,5.90
2023-04-16T18:03:35.987Z,5.68
2023-04-16T18:06:03.298Z,5.72
2023-04-16T18:08:30.585Z,5.97
2023-04-16T18:10:57.805Z,5.38
2023-04-16T18:13:25.117Z,5.53
2023-04-16T18:15:53.199Z,4.43
2023-04-16T18:18:21.614Z,5.38
2023-04-16T18:20:48.820Z,6.05
2023-04-16T18:23:15.913Z,5.55
2023-04-16T18:25:43.369Z,5.15
2023-04-16T18:28:13.640Z,4.22
2023-04-16T18:33:34.242Z,4.38
2023-04-16T18:35:55.462Z,5.10
2023-04-16T18:38:23.097Z,5.10
2023-04-16T18:40:50.113Z,4.30
2023-04-16T18:43:17.301Z,4.75
2023-04-16T18:45:45.078Z,5.93
2023-04-16T18:48:12.263Z,5.18
2023-04-16T18:50:39.419Z,6.22
2023-04-16T18:53:06.645Z,5.38
2023-04-16T18:55:33.786Z,4.85
2023-04-16T18:58:01.070Z,5.88
2023-04-16T19:00:28.441Z,3.92
2023-04-16T19:02:58.635Z,4.55
2023-04-16T19:05:25.769Z,7.18
2023-04-16T19:07:53.439Z,5.18
2023-04-16T19:10:20.522Z,5.80
2023-04-16T19:12:47.811Z,5.57
2023-04-16T19:15:15.000Z,6.35
2023-04-16T19:17:42.292Z,6.90
2023-04-16T19:20:11.700Z,6.60
2023-04-16T19:22:38.936Z,5.90
2023-04-16T19:25:07.395Z,6.43
2023-04-16T19:27:35.037Z,6.20
2023-04-16T19:30:03.064Z,6.65
2023-04-16T19:32:32.761Z,6.57
2023-04-16T19:34:59.875Z,6.93
2023-04-16T19:37:27.425Z,7.18
2023-04-16T19:39:55.941Z,6.38
2023-04-16T19:42:24.598Z,6.47
2023-04-16T19:44:52.487Z,6.15
2023-04-16T19:47:20.243Z,5.68
2023-04-16T19:49:47.389Z,6.35
2023-04-16T19:52:16.562Z,6.72
2023-04-16T19:54:44.130Z,5.60
2023-04-16T19:57:12.776Z,5.93
2023-04-16T19:59:39.840Z,5.38
2023-04-16T20:02:07.442Z,5.22
2023-04-16T20:04:35.712Z,4.50
2023-04-16T20:07:02.820Z,4.93
2023-04-16T20:09:30.008Z,4.55
2023-04-16T20:11:58.166Z,4.35
2023-04-16T20:14:25.418Z,3.42
2023-04-16T20:16:52.907Z,3.22
2023-04-16T20:19:20.078Z,3.45
2023-04-16T20:21:47.161Z,3.22
2023-04-16T20:24:15.571Z,3.95
2023-04-16T20:26:42.727Z,4.72
2023-04-16T20:29:10.585Z,5.10
2023-04-16T20:31:37.749Z,5.35
2023-04-16T20:34:04.728Z,4.85
2023-04-16T20:36:32.141Z,4.63
2023-04-16T20:39:00.011Z,5.55
2023-04-16T20:41:27.487Z,4.68
2023-04-16T20:43:54.586Z,5.38
2023-04-16T20:46:26.109Z,4.70
2023-04-16T20:48:53.228Z,5.80
2023-04-16T20:51:20.354Z,5.40
2023-04-16T20:53:47.396Z,5.68
2023-04-16T20:56:17.335Z,6.18
2023-04-16T20:58:44.454Z,5.65
2023-04-16T21:01:11.590Z,4.85
2023-04-16T21:03:38.881Z,4.78
2023-04-16T21:06:06.159Z,5.38
2023-04-16T21:08:33.255Z,5.13
2023-04-16T21:11:00.325Z,5.25
2023-04-16T21:13:27.443Z,4.65
2023-04-16T21:15:54.655Z,4.97
2023-04-16T21:18:21.833Z,4.82
2023-04-16T21:20:48.932Z,5.85
2023-04-16T21:23:16.087Z,5.63
2023-04-16T21:25:43.118Z,5.32
2023-04-16T21:28:10.330Z,5.30
2023-04-16T21:30:37.470Z,6.20
2023-04-16T21:33:04.552Z,5.80
2023-04-16T21:35:33.323Z,6.65
2023-04-16T21:38:00.399Z,6.88
2023-04-16T21:40:27.470Z,8.40
2023-04-16T21:42:55.371Z,7.47
2023-04-16T21:45:22.470Z,7.25
2023-04-16T21:47:49.767Z,6.53
2023-04-16T21:50:17.132Z,7.57
2023-04-16T21:52:46.864Z,6.70
2023-04-16T21:55:14.822Z,7.80
2023-04-16T21:57:41.914Z,7.47
2023-04-16T22:00:13.904Z,7.07
2023-04-16T22:02:42.732Z,6.80
2023-04-16T22:05:11.505Z,7.25
2023-04-16T22:07:39.069Z,7.97
2023-04-16T22:10:07.215Z,6.90
2023-04-16T22:12:37.836Z,8.75
2023-04-16T22:15:09.220Z,7.93
2023-04-16T22:17:36.942Z,9.52
2023-04-16T22:20:10.206Z,8.60
2023-04-16T22:22:37.268Z,8.95
2023-04-16T22:25:04.776Z,7.93
2023-04-16T22:27:33.915Z,9.35
2023-04-16T22:30:01.941Z,8.93
2023-04-16T22:32:34.287Z,8.77
2023-04-16T22:35:02.151Z,9.73
2023-04-16T22:37:31.069Z,9.82
2023-04-16T22:39:58.277Z,10.48
2023-04-16T22:42:25.295Z,9.23
2023-04-16T22:44:52.526Z,9.18
2023-04-16T22:47:19.587Z,9.90
2023-04-16T22:49:47.650Z,9.38
2023-04-16T22:52:14.733Z,9.23
2023-04-16T22:54:41.753Z,10.07
2023-04-16T22:57:08.848Z,9.68
2023-04-16T22:59:35.863Z,9.48
2023-04-16T23:02:02.949Z,10.38
2023-04-16T23:04:30.141Z,9.32
2023-04-16T23:06:57.244Z,9.10
2023-04-16T23:09:24.378Z,9.73
2023-04-16T23:11:51.490Z,10.05
2023-04-16T23:14:18.817Z,9.73
2023-04-16T23:16:45.851Z,8.90
2023-04-16T23:19:15.156Z,10.63
2023-04-16T23:21:42.651Z,10.82
2023-04-16T23:24:10.102Z,9.32
2023-04-16T23:26:37.160Z,10.07
2023-04-16T23:29:04.200Z,9.52
2023-04-16T23:31:31.324Z,10.70
2023-04-16T23:33:58.507Z,11.68
2023-04-16T23:36:26.586Z,10.20
2023-04-16T23:38:54.126Z,9.85
2023-04-16T23:41:23.366Z,10.20
2023-04-16T23:43:50.376Z,10.18
2023-04-16T23:46:17.809Z,10.32
2023-04-16T23:48:44.814Z,11.70
2023-04-16T23:51:12.023Z,10.80
2023-04-16T23:53:41.032Z,9.27
2023-04-16T23:56:11.329Z,9.10
2023-04-16T23:58:39.038Z,8.25
